Latest Weather Observations for PWS B

IDT60801

Issued at 10:51 am EST Tuesday 26 May 2020 (issued every 10 minutes, with the page automatically refreshed every 10 minutes)

About weather observations | Map of weather stations | Latest weather observations for TAS | Other Formats
Station Details ID: 250093 Name: TAS PARKS WILDLIFE PORTABLE B Lat: -43.51 Lon: 146.86 Height: 35.0 m

Portable automatic weather stations (PAWS) are operated by other organisations, such as Fire and Emergency Services, and are included here by agreement. Portable stations may be deployed to a location for a short period and their location may be subject to change without notice. Wind observations from these stations are provided from heights of either three (3) or ten (10) metres above ground level (AGL).

Data from the previous 72 hours. | See also: Recent months for locations in Tasmania
Date/Time
EST
Temp
°C
App
Temp
°C
Dew
Point
°C
Rel
Hum
%
Delta-T
°C
Wind Press
QNH
hPa
Press
MSL
hPa
Rain since
9am
mm
Dir  Spd
km/h
Gust
km/h
Spd
kts
Gust
kts
26/10:40am 8.6 7.5 7.1 90 0.7 ESE 2 4 1 2 - - 0.0
26/10:30am 7.8 7.1 6.8 93 0.5 CALM 0 2 0 1 - - 0.0
26/10:20am 7.1 6.3 6.3 95 0.4 CALM 0 4 0 2 - - 0.0
26/10:10am 6.6 5.7 5.9 95 0.3 CALM 0 2 0 1 - - 0.0
26/10:00am 5.7 4.6 5.2 97 0.2 CALM 0 2 0 1 - - 0.0
26/09:50am 4.7 3.1 4.3 97 0.2 N 2 2 1 1 - - 0.0
26/09:40am 3.8 1.6 3.4 97 0.2 ENE 4 4 2 2 - - 0.0
26/09:30am 3.3 1.8 3.0 98 0.1 CALM 0 2 0 1 - - 0.0
26/09:20am 2.5 0.5 2.2 98 0.1 WSW 2 2 1 1 - - 0.0
26/09:10am 1.7 -0.5 1.3 97 0.2 WSW 2 4 1 2 - - 0.0
26/09:00am 1.1 -1.1 0.8 98 0.1 W 2 4 1 2 - - 0.0
26/08:50am 0.4 -1.6 0.2 99 0.1 CALM 0 0 0 0 - - 0.0
26/08:40am -0.4 -2.5 -0.6 99 0.1 CALM 0 0 0 0 - - 0.0
26/08:30am -1.3 -3.5 -1.5 99 0.0 CALM 0 0 0 0 - - 0.0
26/08:20am -1.9 -4.2 -2.0 99 -0.1 CALM 0 0 0 0 - - 0.0
26/08:10am -2.4 -4.7 -2.5 99 -0.1 CALM 0 0 0 0 - - 0.0
26/08:00am -2.7 -5.1 -2.9 99 0.0 CALM 0 2 0 1 - - 0.0
26/07:50am -3.0 -5.4 -3.1 99 -0.1 CALM 0 2 0 1 - - 0.0
26/07:40am -2.9 -5.7 -3.0 99 -0.1 WNW 2 4 1 2 - - 0.0
26/07:30am -3.1 -5.9 -3.2 99 -0.1 W 2 4 1 2 - - 0.0
26/07:20am -3.5 -6.3 -3.6 99 -0.1 W 2 6 1 3 - - 0.0
26/07:10am -3.4 -5.8 -3.5 99 -0.1 CALM 0 4 0 2 - - 0.0
26/07:00am -3.4 -5.8 -3.5 99 -0.1 CALM 0 0 0 0 - - 0.0
26/06:50am -3.2 -6.0 -3.3 99 -0.1 W 2 2 1 1 - - 0.0
26/06:40am -3.4 -6.2 -3.5 99 -0.1 W 2 2 1 1 - - 0.0
26/06:30am -3.4 -6.2 -3.5 99 -0.1 WSW 2 4 1 2 - - 0.0
26/06:20am -3.3 -5.7 -3.4 99 -0.1 CALM 0 4 0 2 - - 0.0
26/06:10am -3.1 -5.9 -3.2 99 -0.1 WNW 2 2 1 1 - - 0.0
26/06:00am -3.2 -6.4 -3.3 99 -0.1 W 4 4 2 2 - - 0.0
26/05:50am -3.3 -6.1 -3.4 99 -0.1 SSW 2 2 1 1 - - 0.0
26/05:40am -3.2 -5.6 -3.3 99 -0.1 CALM 0 2 0 1 - - 0.0
26/05:30am -3.1 -5.5 -3.2 99 -0.1 CALM 0 2 0 1 - - 0.0
26/05:20am -2.9 -5.7 -3.0 99 -0.1 WNW 2 4 1 2 - - 0.0
26/05:10am -2.7 -5.4 -2.8 99 -0.1 W 2 4 1 2 - - 0.0
26/05:00am -2.7 -5.8 -2.8 99 -0.1 W 4 4 2 2 - - 0.0
26/04:50am -2.7 -5.8 -2.8 99 -0.1 W 4 4 2 2 - - 0.0
26/04:40am -2.8 -5.9 -2.8 100 0.0 WSW 4 4 2 2 - - 0.0
26/04:30am -3.0 -5.8 -3.0 100 0.0 W 2 4 1 2 - - 0.0
26/04:20am -2.9 -5.7 -3.0 99 -0.1 W 2 4 1 2 - - 0.0
26/04:10am -2.8 -5.6 -2.9 99 -0.1 W 2 4 1 2 - - 0.0
26/04:00am -2.6 -4.9 -2.6 100 0.0 CALM 0 0 0 0 - - 0.0
26/03:50am -2.4 -4.7 -2.5 99 -0.1 CALM 0 0 0 0 - - 0.0
26/03:40am -2.3 -4.6 -2.3 100 0.0 CALM 0 0 0 0 - - 0.0
26/03:30am -2.1 -4.8 -2.1 100 0.0 W 2 2 1 1 - - 0.0
26/03:20am -2.0 -5.0 -2.1 99 -0.1 WNW 4 4 2 2 - - 0.0
26/03:10am -2.1 -5.1 -2.2 99 -0.1 W 4 4 2 2 - - 0.0
26/03:00am -1.9 -4.9 -1.9 100 0.0 W 4 6 2 3 - - 0.0
26/02:50am -1.5 -3.7 -1.5 100 0.0 CALM 0 4 0 2 - - 0.0
26/02:40am -1.4 -4.0 -1.4 100 0.0 SSW 2 2 1 1 - - 0.0
26/02:30am -1.7 -3.9 -1.7 100 0.0 CALM 0 0 0 0 - - 0.0
26/02:20am -2.0 -4.3 -2.0 100 0.0 CALM 0 2 0 1 - - 0.0
26/02:10am -2.1 -4.4 -2.1 100 0.0 CALM 0 2 0 1 - - 0.0
26/02:00am -2.2 -4.5 -2.2 100 0.0 CALM 0 0 0 0 - - 0.0
26/01:50am -2.3 -4.6 -2.4 99 -0.1 CALM 0 0 0 0 - - 0.0
26/01:40am -2.2 -4.5 -2.2 100 0.0 CALM 0 2 0 1 - - 0.0
26/01:30am -2.1 -5.1 -2.2 99 -0.1 WNW 4 4 2 2 - - 0.0
26/01:20am -2.3 -5.0 -2.3 100 0.0 WSW 2 4 1 2 - - 0.0
26/01:10am -2.5 -5.6 -2.5 100 0.0 W 4 6 2 3 - - 0.0
26/01:00am -2.7 -5.4 -2.7 100 0.0 SSW 2 4 1 2 - - 0.0
26/12:50am -2.5 -4.8 -2.5 100 0.0 CALM 0 0 0 0 - - 0.0
26/12:40am -2.3 -5.0 -2.3 100 0.0 ENE 2 4 1 2 - - 0.0
26/12:30am -2.0 -4.7 -2.1 99 -0.1 NW 2 4 1 2 - - 0.0
26/12:20am -2.3 -5.0 -2.3 100 0.0 W 2 4 1 2 - - 0.0
26/12:10am -2.4 -5.1 -2.4 100 0.0 SW 2 6 1 3 - - 0.0
26/12:00am -2.4 -4.7 -2.5 99 -0.1 CALM 0 4 0 2 - - 0.0
 
Date/Time
EST
Temp
°C
App
Temp
°C
Dew
Point
°C
Rel
Hum
%
Delta-T
°C
Wind Press
QNH
hPa
Press
MSL
hPa
Rain since
9am
mm
Dir  Spd
km/h
Gust
km/h
Spd
kts
Gust
kts
25/11:50pm -2.4 -5.1 -2.4 100 0.0 WSW 2 2 1 1 - - 0.0
25/11:40pm -2.3 -4.6 -2.3 100 0.0 CALM 0 2 0 1 - - 0.0
25/11:30pm -2.1 -4.8 -2.1 100 0.0 W 2 4 1 2 - - 0.0
25/11:20pm -1.9 -4.2 -2.0 99 -0.1 CALM 0 4 0 2 - - 0.0
25/11:10pm -1.7 -4.3 -1.7 100 0.0 S 2 4 1 2 - - 0.0
25/11:00pm -1.4 -3.6 -1.5 99 0.0 CALM 0 4 0 2 - - 0.0
25/10:50pm -1.2 -3.7 -1.3 99 0.0 NW 2 7 1 4 - - 0.0
25/10:40pm -1.7 -4.3 -1.8 99 0.0 WNW 2 6 1 3 - - 0.0
25/10:30pm -1.7 -4.3 -1.7 100 0.0 W 2 6 1 3 - - 0.0
25/10:20pm -1.5 -4.1 -1.5 100 0.0 S 2 4 1 2 - - 0.0
25/10:10pm -1.4 -3.6 -1.5 99 0.0 CALM 0 0 0 0 - - 0.0
25/10:00pm -1.3 -3.8 -1.3 100 0.0 NNE 2 4 1 2 - - 0.0
25/09:50pm -1.4 -3.6 -1.4 100 0.0 CALM 0 4 0 2 - - 0.0
25/09:40pm -1.3 -3.5 -1.4 99 0.0 CALM 0 0 0 0 - - 0.0
25/09:30pm -1.4 -3.6 -1.5 99 0.0 CALM 0 0 0 0 - - 0.0
25/09:20pm -1.2 -3.7 -1.3 99 0.0 WNW 2 4 1 2 - - 0.0
25/09:10pm -1.2 -4.1 -1.3 99 0.0 W 4 4 2 2 - - 0.0
25/09:00pm -1.4 -4.0 -1.5 99 0.0 W 2 4 1 2 - - 0.0
25/08:50pm -1.5 -3.7 -1.5 100 0.0 CALM 0 0 0 0 - - 0.0
25/08:40pm -1.2 -3.7 -1.3 99 0.0 SW 2 4 1 2 - - 0.0
25/08:30pm -0.7 -3.2 -0.7 100 0.0 ENE 2 4 1 2 - - 0.0
25/08:20pm -0.6 -3.1 -0.7 99 0.0 SSE 2 4 1 2 - - 0.0
25/08:10pm -0.4 -3.2 -0.5 99 0.0 WNW 4 6 2 3 - - 0.0
25/08:00pm -1.0 -3.9 -1.1 99 0.0 W 4 6 2 3 - - 0.0
25/07:50pm -0.9 -3.0 -1.1 99 0.0 CALM 0 0 0 0 - - 0.0
25/07:40pm -0.6 -2.7 -0.8 99 0.0 CALM 0 0 0 0 - - 0.0
25/07:30pm -0.3 -2.7 -0.4 99 0.0 N 2 4 1 2 - - 0.0
25/07:20pm 0.1 -2.6 0.0 99 0.0 W 4 6 2 3 - - 0.0
25/07:10pm 0.0 -2.0 -0.2 99 0.1 CALM 0 4 0 2 - - 0.0
25/07:00pm 0.5 -1.4 0.3 99 0.1 CALM 0 2 0 1 - - 0.0
25/06:50pm 1.2 -1.0 1.1 99 0.0 W 2 4 1 2 - - 0.0
25/06:40pm 1.1 -1.1 0.9 99 0.1 W 2 6 1 3 - - 0.0
25/06:30pm 1.1 -1.5 0.8 98 0.1 W 4 6 2 3 - - 0.0
25/06:20pm 1.8 -0.3 1.5 98 0.1 WSW 2 4 1 2 - - 0.0
25/06:10pm 2.0 0.3 1.8 99 0.1 CALM 0 2 0 1 - - 0.0
25/06:00pm 2.1 0.0 1.8 98 0.1 SE 2 4 1 2 - - 0.0
25/05:50pm 2.4 0.3 2.0 97 0.2 NW 2 4 1 2 - - 0.0
25/05:40pm 2.5 0.4 2.0 96 0.2 W 2 4 1 2 - - 0.0
25/05:30pm 3.0 1.4 2.4 96 0.2 CALM 0 2 0 1 - - 0.0
25/05:20pm 3.8 2.4 3.3 97 0.2 CALM 0 4 0 2 - - 0.0
25/05:10pm 4.1 2.3 3.2 94 0.4 SW 2 4 1 2 - - 0.0
25/05:00pm 4.8 3.1 4.0 95 0.3 ESE 2 6 1 3 - - 0.0
25/04:50pm 5.5 3.9 4.3 92 0.5 ENE 2 4 1 2 - - 0.0
25/04:40pm 6.3 4.8 5.2 93 0.5 NNE 2 4 1 2 - - 0.0
25/04:30pm 7.0 5.2 5.3 89 0.8 NNW 4 4 2 2 - - 0.0
25/04:20pm 8.0 6.2 5.6 85 1.1 WNW 4 6 2 3 - - 0.0
25/04:10pm 9.2 7.1 6.0 80 1.5 NE 6 6 3 3 - - 0.0
25/04:00pm 10.4 8.7 5.8 73 2.1 E 4 6 2 3 - - 0.0
25/03:50pm 10.7 9.0 5.7 71 2.3 E 4 6 2 3 - - 0.0
25/03:40pm 10.8 9.0 5.4 69 2.5 E 4 4 2 2 - - 0.0
25/03:30pm 10.7 8.9 5.3 69 2.5 E 4 6 2 3 - - 0.0
25/03:20pm 11.0 8.8 5.5 69 2.5 E 6 7 3 4 - - 0.0
25/03:10pm 11.2 9.0 5.3 67 2.7 E 6 7 3 4 - - 0.0
25/03:00pm 11.4 9.1 5.5 67 2.7 ENE 7 9 4 5 - - 0.0
25/02:50pm 11.5 9.3 5.5 66 2.8 ENE 6 7 3 4 - - 0.0
25/02:40pm 11.5 9.1 5.4 66 2.8 ENE 7 9 4 5 - - 0.0
25/02:30pm 11.6 9.3 5.5 66 2.8 ENE 7 7 4 4 - - 0.0
25/02:20pm 11.5 9.1 5.2 65 2.9 ENE 7 11 4 6 - - 0.0
25/02:10pm 11.3 8.5 5.1 65 2.8 NE 9 11 5 6 - - 0.0
25/02:00pm 11.3 8.5 5.0 65 2.9 ENE 9 11 5 6 - - 0.0
25/01:50pm 11.3 8.5 5.1 65 2.8 NE 9 11 5 6 - - 0.0
25/01:40pm 11.2 8.4 5.1 66 2.8 NE 9 13 5 7 - - 0.0
25/01:30pm 10.9 7.7 4.9 66 2.7 NE 11 13 6 7 - - 0.0
25/01:20pm 11.0 7.8 5.0 66 2.7 NE 11 15 6 8 - - 0.0
25/01:10pm 11.0 7.8 4.9 66 2.8 NE 11 13 6 7 - - 0.0
25/01:00pm 10.9 7.7 5.0 67 2.7 NE 11 13 6 7 - - 0.0
25/12:50pm 10.9 7.7 5.0 67 2.7 NE 11 13 6 7 - - 0.0
25/12:40pm 10.7 7.4 4.6 66 2.7 NE 11 15 6 8 - - 0.0
25/12:30pm 10.4 6.8 5.1 69 2.4 NNE 13 17 7 9 - - 0.0
25/12:20pm 10.2 6.1 4.4 67 2.6 NNE 15 17 8 9 - - 0.0
25/12:10pm 10.2 6.1 4.4 67 2.6 NNE 15 17 8 9 - - 0.0
25/12:00pm 10.2 6.2 4.8 69 2.4 NNE 15 19 8 10 - - 0.0
25/11:50am 10.4 6.7 4.7 68 2.6 NNE 13 15 7 8 - - 0.0
25/11:40am 10.3 6.6 4.7 68 2.5 NNE 13 17 7 9 - - 0.0
25/11:30am 10.0 6.7 4.5 68 2.5 NNE 11 13 6 7 - - 0.0
25/11:20am 9.5 6.6 4.9 73 2.1 N 9 13 5 7 - - 0.0
25/11:10am 9.5 6.6 4.7 72 2.1 N 9 11 5 6 - - 0.0
25/11:00am 9.4 6.5 4.6 72 2.1 N 9 11 5 6 - - 0.0
25/10:50am 9.3 6.8 5.0 74 1.9 NNW 7 11 4 6 - - 0.0
25/10:40am 9.2 6.7 5.0 75 1.9 NNW 7 11 4 6 - - 0.0
25/10:30am 9.1 6.7 5.4 77 1.7 N 7 9 4 5 - - 0.0
25/10:20am 9.1 6.9 5.3 77 1.7 N 6 9 3 5 - - 0.0
25/10:10am 8.9 6.8 5.6 80 1.5 NNW 6 7 3 4 - - 0.0
25/10:00am 8.7 6.5 5.2 79 1.6 NW 6 7 3 4 - - 0.0
25/09:50am 8.5 6.7 5.5 81 1.4 WNW 4 6 2 3 - - 0.0
25/09:40am 8.1 5.9 5.4 83 1.2 NW 6 7 3 4 - - 0.0
25/09:30am 7.8 5.7 5.9 88 0.9 ENE 6 6 3 3 - - 0.0
25/09:20am 7.7 6.1 6.4 91 0.6 SE 4 6 2 3 - - 0.0
25/09:10am 7.5 5.4 5.7 88 0.8 NW 6 7 3 4 - - 0.0
25/09:00am 7.0 5.7 5.9 93 0.5 NW 2 6 1 3 - - 0.2
25/08:50am 6.6 5.7 5.9 95 0.3 CALM 0 0 0 0 - - 0.2
25/08:40am 6.4 5.4 5.8 96 0.3 CALM 0 2 0 1 - - 0.2
25/08:30am 6.2 4.8 5.6 96 0.3 SE 2 4 1 2 - - 0.2
25/08:20am 6.0 4.6 5.3 95 0.3 E 2 2 1 1 - - 0.2
25/08:10am 5.9 4.8 5.2 95 0.3 CALM 0 2 0 1 - - 0.2
25/08:00am 5.8 4.7 5.1 95 0.3 CALM 0 0 0 0 - - 0.2
25/07:50am 5.7 3.8 4.7 93 0.4 WSW 4 6 2 3 - - 0.2
25/07:40am 5.5 4.4 4.9 96 0.3 CALM 0 4 0 2 - - 0.2
25/07:30am 5.5 4.4 4.9 96 0.3 CALM 0 0 0 0 - - 0.2
25/07:20am 5.5 4.0 4.8 95 0.3 SW 2 4 1 2 - - 0.2
25/07:10am 5.5 3.9 4.7 95 0.3 W 2 6 1 3 - - 0.2
25/07:00am 5.5 4.4 5.0 97 0.2 CALM 0 0 0 0 - - 0.2
25/06:50am 5.5 4.4 4.9 96 0.3 CALM 0 2 0 1 - - 0.2
25/06:40am 5.5 4.4 4.9 96 0.3 CALM 0 2 0 1 - - 0.2
25/06:30am 5.5 4.0 4.8 95 0.3 SW 2 6 1 3 - - 0.2
25/06:20am 5.5 4.0 5.0 97 0.2 W 2 4 1 2 - - 0.2
25/06:10am 5.5 4.1 5.3 99 0.1 W 2 2 1 1 - - 0.2
25/06:00am 5.5 4.5 5.4 99 0.0 CALM 0 2 0 1 - - 0.2
25/05:50am 5.6 4.6 5.5 99 0.0 CALM 0 4 0 2 - - 0.2
25/05:40am 5.5 4.5 5.4 99 0.0 CALM 0 4 0 2 - - 0.2
25/05:30am 5.6 4.2 5.5 99 0.0 SSW 2 4 1 2 - - 0.2
25/05:20am 5.5 4.5 5.4 99 0.0 CALM 0 4 0 2 - - 0.2
25/05:10am 5.5 4.5 5.4 99 0.0 CALM 0 0 0 0 - - 0.2
25/05:00am 5.7 4.7 5.6 99 0.0 CALM 0 0 0 0 - - 0.2
25/04:50am 5.8 4.8 5.7 99 0.0 CALM 0 4 0 2 - - 0.2
25/04:40am 5.9 4.6 5.8 99 0.0 N 2 4 1 2 - - 0.2
25/04:30am 5.9 4.6 5.8 99 0.0 WNW 2 6 1 3 - - 0.2
25/04:20am 5.9 4.9 5.8 99 0.0 CALM 0 6 0 3 - - 0.2
25/04:10am 5.9 4.5 5.7 99 0.1 SW 2 4 1 2 - - 0.2
25/04:00am 5.9 4.9 5.8 99 0.0 CALM 0 0 0 0 - - 0.2
25/03:50am 6.0 5.1 5.9 99 0.0 CALM 0 0 0 0 - - 0.2
25/03:40am 6.1 5.2 5.9 99 0.1 CALM 0 2 0 1 - - 0.2
25/03:30am 6.1 5.2 6.0 99 0.0 CALM 0 4 0 2 - - 0.2
25/03:20am 6.2 5.3 6.0 99 0.1 CALM 0 4 0 2 - - 0.2
25/03:10am 6.2 5.3 6.0 99 0.1 CALM 0 2 0 1 - - 0.2
25/03:00am 6.2 5.3 6.1 99 0.0 CALM 0 0 0 0 - - 0.2
25/02:50am 6.3 5.4 6.1 99 0.1 CALM 0 2 0 1 - - 0.2
25/02:40am 6.3 4.6 6.1 99 0.1 W 4 6 2 3 - - 0.2
25/02:30am 6.3 5.0 6.1 99 0.1 NE 2 4 1 2 - - 0.2
25/02:20am 6.3 5.4 6.2 99 0.0 CALM 0 4 0 2 - - 0.2
25/02:10am 6.3 5.4 6.2 99 0.0 CALM 0 0 0 0 - - 0.2
25/02:00am 6.3 5.4 6.2 99 0.0 CALM 0 4 0 2 - - 0.2
25/01:50am 6.3 5.4 6.2 99 0.0 CALM 0 0 0 0 - - 0.2
25/01:40am 6.4 5.1 6.2 99 0.1 SSE 2 4 1 2 - - 0.2
25/01:30am 6.4 5.6 6.3 99 0.0 CALM 0 2 0 1 - - 0.2
25/01:20am 6.4 5.6 6.3 99 0.0 CALM 0 4 0 2 - - 0.2
25/01:10am 6.4 5.2 6.3 99 0.0 W 2 4 1 2 - - 0.2
25/01:00am 6.4 4.8 6.3 99 0.0 W 4 6 2 3 - - 0.2
25/12:50am 6.3 4.7 6.2 99 0.0 W 4 6 2 3 - - 0.2
25/12:40am 6.3 5.0 6.2 99 0.0 SW 2 4 1 2 - - 0.2
25/12:30am 6.3 5.4 6.2 99 0.0 CALM 0 4 0 2 - - 0.2
25/12:20am 6.3 5.4 6.2 99 0.0 CALM 0 4 0 2 - - 0.2
25/12:10am 6.4 5.5 6.2 99 0.1 CALM 0 4 0 2 - - 0.2
25/12:00am 6.3 5.0 6.2 99 0.0 W 2 6 1 3 - - 0.2
 
Date/Time
EST
Temp
°C
App
Temp
°C
Dew
Point
°C
Rel
Hum
%
Delta-T
°C
Wind Press
QNH
hPa
Press
MSL
hPa
Rain since
9am
mm
Dir  Spd
km/h
Gust
km/h
Spd
kts
Gust
kts
24/11:50pm 6.4 5.5 6.2 99 0.1 CALM 0 4 0 2 - - 0.2
24/11:40pm 6.4 5.1 6.2 99 0.1 NW 2 4 1 2 - - 0.2
24/11:30pm 6.4 5.5 6.2 99 0.1 CALM 0 0 0 0 - - 0.2
24/11:20pm 6.4 5.5 6.2 99 0.1 CALM 0 0 0 0 - - 0.2
24/11:10pm 6.4 5.1 6.2 99 0.1 SSE 2 4 1 2 - - 0.2
24/11:00pm 6.5 5.3 6.3 99 0.1 N 2 4 1 2 - - 0.2
24/10:50pm 6.6 5.8 6.3 98 0.1 CALM 0 4 0 2 - - 0.2
24/10:40pm 6.6 5.8 6.4 99 0.1 CALM 0 0 0 0 - - 0.2
24/10:30pm 6.6 5.4 6.4 99 0.1 E 2 4 1 2 - - 0.2
24/10:20pm 6.7 5.9 6.4 98 0.1 CALM 0 0 0 0 - - 0.2
24/10:10pm 6.8 6.0 6.5 98 0.1 CALM 0 0 0 0 - - 0.2
24/10:00pm 6.8 5.6 6.5 98 0.1 WSW 2 4 1 2 - - 0.2
24/09:50pm 6.8 5.2 6.5 98 0.1 SW 4 7 2 4 - - 0.2
24/09:40pm 6.7 5.9 6.5 99 0.1 CALM 0 2 0 1 - - 0.2
24/09:30pm 6.7 5.1 6.4 98 0.1 W 4 4 2 2 - - 0.2
24/09:20pm 6.7 5.5 6.4 98 0.1 W 2 4 1 2 - - 0.2
24/09:10pm 6.7 5.5 6.4 98 0.1 NNE 2 4 1 2 - - 0.2
24/09:00pm 6.7 5.9 6.4 98 0.1 CALM 0 2 0 1 - - 0.2
24/08:50pm 6.8 5.6 6.5 98 0.1 SW 2 4 1 2 - - 0.2
24/08:40pm 6.7 5.5 6.4 98 0.1 SSW 2 4 1 2 - - 0.2
24/08:30pm 6.7 5.9 6.4 98 0.1 CALM 0 4 0 2 - - 0.2
24/08:20pm 6.7 5.9 6.4 98 0.1 CALM 0 2 0 1 - - 0.2
24/08:10pm 6.8 5.6 6.4 97 0.2 S 2 4 1 2 - - 0.2
24/08:00pm 6.8 5.6 6.4 97 0.2 W 2 2 1 1 - - 0.2
24/07:50pm 6.8 5.6 6.4 97 0.2 W 2 4 1 2 - - 0.2
24/07:40pm 6.8 6.0 6.4 97 0.2 CALM 0 0 0 0 - - 0.2
24/07:30pm 6.9 6.1 6.4 97 0.2 CALM 0 0 0 0 - - 0.2
24/07:20pm 6.9 6.1 6.3 96 0.3 CALM 0 0 0 0 - - 0.2
24/07:10pm 6.9 6.1 6.3 96 0.3 CALM 0 0 0 0 - - 0.2
24/07:00pm 7.0 5.8 6.3 95 0.3 ENE 2 4 1 2 - - 0.2
24/06:50pm 7.1 5.9 6.4 95 0.3 ENE 2 4 1 2 - - 0.2
24/06:40pm 7.2 5.6 6.4 95 0.4 WNW 4 4 2 2 - - 0.2
24/06:30pm 7.3 5.7 6.4 94 0.4 WSW 4 4 2 2 - - 0.2
24/06:20pm 7.3 6.5 6.4 94 0.4 CALM 0 4 0 2 - - 0.2
24/06:10pm 7.3 6.1 6.3 93 0.5 WSW 2 4 1 2 - - 0.2
24/06:00pm 7.3 6.1 6.3 93 0.5 SW 2 4 1 2 - - 0.2
24/05:50pm 7.4 6.5 6.1 91 0.6 CALM 0 0 0 0 - - 0.2
24/05:40pm 7.5 6.2 6.1 91 0.6 SW 2 4 1 2 - - 0.2
24/05:30pm 7.4 6.2 6.4 93 0.5 WSW 2 4 1 2 - - 0.2
24/05:20pm 7.6 6.5 6.9 95 0.3 SSW 2 4 1 2 - - 0.2
24/05:10pm 7.7 7.0 6.9 95 0.4 CALM 0 2 0 1 - - 0.2
24/05:00pm 7.9 7.2 7.0 94 0.4 CALM 0 2 0 1 - - 0.2
24/04:50pm 8.1 7.4 6.9 92 0.6 CALM 0 0 0 0 - - 0.2
24/04:40pm 8.3 7.5 6.7 90 0.7 CALM 0 2 0 1 - - 0.2
24/04:30pm 8.5 7.8 7.1 91 0.7 CALM 0 0 0 0 - - 0.2
24/04:20pm 8.7 7.9 6.7 87 0.9 CALM 0 2 0 1 - - 0.2
24/04:10pm 8.8 7.9 6.1 83 1.2 CALM 0 0 0 0 - - 0.2
24/04:00pm 8.9 7.2 5.8 81 1.4 S 4 4 2 2 - - 0.2
24/03:50pm 9.0 6.8 5.1 76 1.8 WSW 6 6 3 3 - - 0.2
24/03:40pm 9.2 7.0 5.2 76 1.8 WSW 6 7 3 4 - - 0.2
24/03:30pm 9.4 7.7 5.8 78 1.6 SW 4 6 2 3 - - 0.2
24/03:20pm 9.4 7.7 5.7 78 1.7 SW 4 6 2 3 - - 0.2
24/03:10pm 9.5 7.2 4.9 73 2.1 SW 6 7 3 4 - - 0.2
24/03:00pm 9.5 7.2 4.7 72 2.1 SW 6 6 3 3 - - 0.2
24/02:50pm 9.6 7.8 5.4 75 1.9 SSW 4 6 2 3 - - 0.2
24/02:40pm 9.5 7.8 6.0 79 1.6 SSW 4 6 2 3 - - 0.2
24/02:30pm 9.5 7.6 6.5 81 1.4 SW 6 6 3 3 - - 0.2
24/02:20pm 9.5 8.0 6.7 83 1.3 SW 4 6 2 3 - - 0.2
24/02:10pm 9.5 8.1 7.3 86 1.0 S 4 6 2 3 - - 0.2
24/02:00pm 9.4 8.0 7.2 86 1.0 SSW 4 4 2 2 - - 0.2
24/01:50pm 9.4 8.1 7.5 88 0.9 S 4 4 2 2 - - 0.2
24/01:40pm 9.3 8.0 7.5 88 0.9 SSW 4 6 2 3 - - 0.2
24/01:30pm 9.2 7.5 7.7 90 0.7 SSW 6 7 3 4 - - 0.2
24/01:20pm 9.3 7.7 7.8 90 0.7 SSW 6 9 3 5 - - 0.2
24/01:10pm 9.2 7.6 8.0 92 0.6 S 6 9 3 5 - - 0.2
24/01:00pm 9.2 7.4 7.9 92 0.6 S 7 11 4 6 - - 0.2
24/12:50pm 9.6 8.0 8.0 90 0.8 S 6 7 3 4 - - 0.2
24/12:40pm 10.1 8.5 7.9 86 1.1 S 6 9 3 5 - - 0.2
24/12:30pm 10.3 8.7 8.1 86 1.1 S 6 9 3 5 - - 0.2
24/12:20pm 10.4 8.5 7.7 83 1.3 S 7 9 4 5 - - 0.2
24/12:10pm 10.6 8.8 8.0 84 1.3 S 7 9 4 5 - - 0.2
24/12:00pm 10.0 7.8 7.9 87 1.0 S 9 13 5 7 - - 0.2
24/11:50am 10.2 8.5 8.4 89 0.9 S 7 11 4 6 - - 0.2
24/11:40am 10.6 8.9 8.4 86 1.1 S 7 9 4 5 - - 0.2
24/11:30am 11.3 9.7 8.6 83 1.3 SW 7 11 4 6 - - 0.2
24/11:20am 11.4 10.0 8.8 84 1.3 SSW 6 9 3 5 - - 0.2
24/11:10am 10.3 8.8 8.3 87 1.0 S 6 7 3 4 - - 0.2
24/11:00am 10.3 8.9 8.7 90 0.8 S 6 9 3 5 - - 0.2
24/10:50am 10.7 9.2 9.2 90 0.7 SW 7 9 4 5 - - 0.2
24/10:40am 9.7 8.2 8.6 93 0.5 SSW 6 9 3 5 - - 0.2
24/10:30am 9.6 8.2 8.7 94 0.4 S 6 7 3 4 - - 0.2
24/10:20am 9.6 8.1 8.5 93 0.5 S 6 9 3 5 - - 0.2
24/10:10am 9.4 7.9 8.6 95 0.4 SSW 6 6 3 3 - - 0.2
24/10:00am 9.3 8.2 8.6 95 0.3 SSW 4 6 2 3 - - 0.2
24/09:50am 9.1 7.4 8.4 95 0.3 S 7 9 4 5 - - 0.0
24/09:40am 9.2 7.7 8.6 96 0.3 S 6 7 3 4 - - 0.0
24/09:30am 9.6 8.0 8.7 94 0.4 SW 7 11 4 6 - - 0.0
24/09:20am 10.0 8.5 9.0 93 0.5 SW 7 9 4 5 - - 0.0
24/09:10am 9.3 7.8 8.5 95 0.4 SSW 6 7 3 4 - - 0.0
24/09:00am 9.0 7.9 8.4 96 0.3 S 4 6 2 3 - - 3.2
24/08:50am 8.7 7.5 8.2 97 0.2 S 4 6 2 3 - - 3.2
24/08:40am 8.6 7.8 8.2 97 0.2 S 2 6 1 3 - - 3.2
24/08:30am 8.5 7.3 8.2 98 0.1 S 4 6 2 3 - - 3.2
24/08:20am 8.5 6.9 8.2 98 0.1 SSW 6 6 3 3 - - 3.0
24/08:10am 8.4 7.6 8.2 99 0.1 SSW 2 4 1 2 - - 3.0
24/08:00am 8.3 6.7 8.0 98 0.1 SSW 6 7 3 4 - - 3.0
24/07:50am 8.3 6.7 8.1 99 0.1 S 6 7 3 4 - - 3.0
24/07:40am 8.3 6.7 8.1 99 0.1 SSW 6 7 3 4 - - 3.0
24/07:30am 8.3 6.7 8.1 99 0.1 SSW 6 7 3 4 - - 2.8
24/07:20am 8.3 6.7 8.0 98 0.1 S 6 7 3 4 - - 2.8
24/07:10am 8.4 6.6 8.1 98 0.1 SSW 7 9 4 5 - - 2.6
24/07:00am 8.3 6.7 8.1 99 0.1 SW 6 7 3 4 - - 2.4
24/06:50am 8.2 6.6 8.0 99 0.1 S 6 7 3 4 - - 2.4
24/06:40am 8.1 6.8 7.8 98 0.1 S 4 6 2 3 - - 2.2
24/06:30am 8.2 6.6 7.9 98 0.1 SW 6 9 3 5 - - 2.2
24/06:20am 8.0 6.7 7.7 98 0.1 SSW 4 6 2 3 - - 2.0
24/06:10am 7.9 6.5 7.4 97 0.2 S 4 9 2 5 - - 2.0
24/06:00am 7.7 6.6 7.1 96 0.3 S 2 4 1 2 - - 2.0
24/05:50am 7.8 6.8 7.2 96 0.3 SSW 2 4 1 2 - - 2.0
24/05:40am 8.0 7.0 7.4 96 0.3 SSE 2 4 1 2 - - 2.0
24/05:30am 8.1 6.8 7.6 97 0.2 S 4 7 2 4 - - 2.0
24/05:20am 8.3 7.0 7.8 97 0.2 SSW 4 6 2 3 - - 2.0
24/05:10am 8.3 7.4 7.9 97 0.2 SSW 2 4 1 2 - - 2.0
24/05:00am 8.3 7.1 7.9 97 0.2 SSW 4 6 2 3 - - 1.8
24/04:50am 8.3 7.1 7.9 97 0.2 S 4 6 2 3 - - 1.8
24/04:40am 8.3 7.1 8.0 98 0.1 SSW 4 6 2 3 - - 1.8
24/04:30am 8.4 7.2 7.9 97 0.2 S 4 6 2 3 - - 1.8
24/04:20am 8.4 6.6 7.9 97 0.2 SSW 7 9 4 5 - - 1.8
24/04:10am 8.3 6.6 7.7 96 0.3 S 6 7 3 4 - - 1.6
24/04:00am 8.3 6.4 7.6 95 0.3 SSW 7 9 4 5 - - 1.6
24/03:50am 8.1 6.4 7.4 95 0.3 SSW 6 9 3 5 - - 1.6
24/03:40am 8.3 6.6 7.6 95 0.3 SSW 6 9 3 5 - - 1.6
24/03:30am 8.4 6.5 7.6 95 0.4 SSW 7 9 4 5 - - 1.6
24/03:20am 8.3 6.3 7.3 93 0.5 SW 7 11 4 6 - - 1.4
24/03:10am 8.3 6.4 7.4 94 0.4 SSW 7 13 4 7 - - 1.4
24/03:00am 8.2 6.4 7.3 94 0.4 SSW 6 7 3 4 - - 1.4
24/02:50am 8.3 6.3 7.3 93 0.5 SW 7 13 4 7 - - 1.4
24/02:40am 8.3 6.3 7.3 93 0.5 SW 7 11 4 6 - - 1.4
24/02:30am 8.3 6.4 7.4 94 0.4 SW 7 13 4 7 - - 1.4
24/02:20am 8.5 6.6 7.4 93 0.5 SSW 7 9 4 5 - - 1.4
24/02:10am 8.3 6.3 6.9 91 0.7 SW 7 9 4 5 - - 1.4
24/02:00am 8.3 6.3 7.1 92 0.6 SSW 7 9 4 5 - - 1.4
24/01:50am 8.3 6.3 7.1 92 0.6 SW 7 11 4 6 - - 1.4
24/01:40am 8.5 6.5 7.0 90 0.7 S 7 9 4 5 - - 1.4
24/01:30am 8.6 6.5 6.7 88 0.9 SSW 7 11 4 6 - - 1.4
24/01:20am 8.8 6.9 6.5 85 1.1 S 6 9 3 5 - - 1.4
24/01:10am 8.8 6.8 6.1 83 1.2 SSW 6 9 3 5 - - 1.4
24/01:00am 8.8 6.5 5.9 82 1.3 SSW 7 13 4 7 - - 1.4
24/12:50am 8.9 6.9 6.1 82 1.3 SW 6 9 3 5 - - 1.4
24/12:40am 9.0 6.8 6.1 82 1.3 SSW 7 11 4 6 - - 1.4
24/12:30am 8.9 6.3 6.1 82 1.3 SSW 9 15 5 8 - - 1.4
24/12:20am 8.7 6.5 6.1 84 1.2 SW 7 11 4 6 - - 1.4
24/12:10am 8.9 5.9 6.2 83 1.2 SSW 11 15 6 8 - - 1.4
24/12:00am 9.0 6.7 5.9 81 1.4 SW 7 9 4 5 - - 1.4
 
Date/Time
EST
Temp
°C
App
Temp
°C
Dew
Point
°C
Rel
Hum
%
Delta-T
°C
Wind Press
QNH
hPa
Press
MSL
hPa
Rain since
9am
mm
Dir  Spd
km/h
Gust
km/h
Spd
kts
Gust
kts
23/11:50pm 9.2 6.5 5.6 78 1.6 SW 9 11 5 6 - - 1.4
23/11:40pm 9.3 7.0 5.9 79 1.6 SW 7 9 4 5 - - 1.4
23/11:30pm 9.4 6.8 6.0 79 1.6 SW 9 11 5 6 - - 1.4
23/11:20pm 9.3 7.1 6.0 80 1.5 SW 7 9 4 5 - - 1.4
23/11:10pm 9.2 6.6 6.0 80 1.5 SW 9 9 5 5 - - 1.4
23/11:00pm 9.1 6.8 5.9 80 1.5 WSW 7 13 4 7 - - 1.4
23/10:50pm 9.0 6.7 5.7 80 1.5 WSW 7 11 4 6 - - 1.4
23/10:40pm 9.1 6.4 5.8 80 1.5 WSW 9 13 5 7 - - 1.4
23/10:30pm 9.1 6.8 5.8 80 1.5 SW 7 9 4 5 - - 1.4
23/10:20pm 9.3 6.5 5.3 76 1.8 SW 9 11 5 6 - - 1.4
23/10:10pm 9.2 6.7 4.7 73 2.0 SW 7 9 4 5 - - 1.4
23/10:00pm 9.2 6.9 4.7 73 2.0 SW 6 9 3 5 - - 1.4
23/09:50pm 9.2 6.7 4.5 72 2.1 SW 7 11 4 6 - - 1.4
23/09:40pm 9.1 6.7 4.4 72 2.1 WSW 6 9 3 5 - - 1.4
23/09:30pm 9.2 6.9 4.8 74 2.0 SW 6 7 3 4 - - 1.4
23/09:20pm 9.2 7.4 5.4 77 1.7 SW 4 6 2 3 - - 1.4
23/09:10pm 9.3 6.8 4.7 73 2.1 WSW 7 13 4 7 - - 1.4
23/09:00pm 9.3 6.5 5.1 75 1.9 SW 9 13 5 7 - - 1.4
23/08:50pm 9.1 6.4 5.4 77 1.7 WSW 9 11 5 6 - - 1.4
23/08:40pm 8.9 6.8 5.8 81 1.4 SW 6 7 3 4 - - 1.4
23/08:30pm 8.8 6.6 5.1 77 1.7 SW 6 9 3 5 - - 1.4
23/08:20pm 9.0 7.6 5.7 80 1.5 W 2 6 1 3 - - 1.4
23/08:10pm 9.3 7.1 5.4 76 1.8 WSW 6 9 3 5 - - 1.4
23/08:00pm 9.3 7.0 5.8 79 1.6 WSW 7 11 4 6 - - 1.4
23/07:50pm 9.4 7.1 5.9 79 1.6 SW 7 11 4 6 - - 1.4
23/07:40pm 9.4 7.4 6.2 80 1.5 SW 6 9 3 5 - - 1.4
23/07:30pm 9.5 7.3 6.3 80 1.5 SW 7 11 4 6 - - 1.4
23/07:20pm 9.4 7.1 5.6 77 1.7 WSW 7 9 4 5 - - 1.4
23/07:10pm 9.2 7.1 6.7 84 1.2 WSW 7 9 4 5 - - 1.4
23/07:00pm 9.3 7.3 7.1 86 1.0 WSW 7 13 4 7 - - 1.4
23/06:50pm 9.4 7.4 7.0 85 1.1 WSW 7 9 4 5 - - 1.4
23/06:40pm 9.5 7.3 6.4 81 1.4 WSW 7 9 4 5 - - 1.4
23/06:30pm 9.5 7.4 6.8 83 1.3 SW 7 9 4 5 - - 1.4
23/06:20pm 9.7 6.9 6.8 82 1.4 WSW 11 15 6 8 - - 1.4
23/06:10pm 9.7 7.0 7.2 84 1.2 SW 11 15 6 8 - - 1.4
23/06:00pm 9.6 6.9 7.4 86 1.0 SW 11 15 6 8 - - 1.4
23/05:50pm 9.5 7.2 7.5 87 1.0 SW 9 19 5 10 - - 1.4
23/05:40pm 9.5 7.6 7.4 87 1.0 SW 7 9 4 5 - - 1.4
23/05:30pm 9.4 7.1 7.5 88 0.9 WSW 9 11 5 6 - - 1.4
23/05:20pm 9.4 7.1 7.4 87 0.9 SW 9 15 5 8 - - 1.4
23/05:10pm 9.5 7.2 7.4 87 1.0 SW 9 15 5 8 - - 1.4
23/05:00pm 9.4 7.1 7.5 88 0.9 SW 9 15 5 8 - - 1.4
23/04:50pm 9.2 7.4 8.0 92 0.6 SW 7 9 4 5 - - 1.4
23/04:40pm 9.3 7.5 8.1 92 0.6 SW 7 9 4 5 - - 1.4
23/04:30pm 9.4 7.7 8.2 92 0.6 SW 7 11 4 6 - - 1.4
23/04:20pm 9.6 7.9 8.3 92 0.6 SW 7 11 4 6 - - 1.2
23/04:10pm 9.6 7.5 8.1 90 0.7 SW 9 13 5 7 - - 1.2
23/04:00pm 9.6 7.9 8.3 92 0.6 SW 7 9 4 5 - - 1.0
23/03:50pm 9.8 8.1 8.5 92 0.6 SW 7 9 4 5 - - 1.0
23/03:40pm 10.0 8.0 8.5 90 0.7 SW 9 13 5 7 - - 1.0
23/03:30pm 9.9 8.2 8.5 91 0.7 SW 7 15 4 8 - - 1.0
23/03:20pm 9.9 8.3 8.9 93 0.5 SW 7 13 4 7 - - 1.0
23/03:10pm 9.9 8.3 8.9 93 0.5 SW 7 15 4 8 - - 1.0
23/03:00pm 10.0 8.4 8.9 93 0.5 SW 7 11 4 6 - - 1.0
23/02:50pm 10.2 8.6 8.9 92 0.6 SW 7 13 4 7 - - 1.0
23/02:40pm 10.1 8.6 9.1 93 0.5 SSW 7 11 4 6 - - 1.0
23/02:30pm 10.3 9.1 9.4 94 0.4 SW 6 7 3 4 - - 0.8
23/02:20pm 10.2 8.7 9.2 93 0.5 SW 7 9 4 5 - - 0.8
23/02:10pm 10.2 8.0 9.2 93 0.5 SW 11 17 6 9 - - 0.8
23/02:00pm 10.3 8.5 9.4 94 0.4 SW 9 11 5 6 - - 0.6
23/01:50pm 10.4 8.3 9.6 95 0.4 SSW 11 13 6 7 - - 0.6
23/01:40pm 10.7 9.4 10.0 95 0.4 SSW 7 13 4 7 - - 0.4
23/01:30pm 10.9 8.9 10.0 94 0.5 SSW 11 15 6 8 - - 0.4
23/01:20pm 11.1 9.1 10.1 94 0.5 SSW 11 15 6 8 - - 0.2
23/01:10pm 11.5 9.5 10.3 92 0.6 SSW 11 15 6 8 - - 0.0
23/01:00pm 12.1 11.1 10.9 92 0.6 SSW 7 9 4 5 - - 0.0
23/12:50pm 12.7 10.9 10.7 88 1.0 S 11 15 6 8 - - 0.0
23/12:40pm 13.5 11.8 9.7 78 2.0 SSW 9 11 5 6 - - 0.0
23/12:30pm 13.3 11.8 9.2 76 2.1 SW 7 9 4 5 - - 0.0
23/12:20pm 12.5 11.1 9.4 81 1.6 SSW 7 11 4 6 - - 0.0
23/12:10pm 12.4 11.0 9.6 83 1.4 S 7 9 4 5 - - 0.0
23/12:00pm 12.5 11.3 9.5 82 1.5 S 6 7 3 4 - - 0.0
23/11:50am 12.4 11.5 9.4 82 1.5 S 4 6 2 3 - - 0.0
23/11:40am 12.1 11.3 9.6 85 1.3 ESE 4 7 2 4 - - 0.0
23/11:30am 11.4 10.9 9.5 88 1.0 ESE 2 6 1 3 - - 0.0
23/11:20am 10.8 9.6 9.5 92 0.7 E 6 9 3 5 - - 0.0
23/11:10am 10.5 9.6 9.3 92 0.6 S 4 7 2 4 - - 0.0
23/11:00am 10.6 9.4 9.6 93 0.5 SSW 6 7 3 4 - - 0.0

Other formats

Comma delimited format used in spreadsheet applications
http://www.bom.gov.au/fwo/IDT60801/IDT60801.99141.axf

JavaScript Object Notation format (JSON) in row-major order
http://www.bom.gov.au/fwo/IDT60801/IDT60801.99141.json

Data quality

Most of these data are generated automatically and are frequently updated. Quality checks on data are not normally performed. It is possible for incorrect values to appear. Refer to information at About Latest Weather Observations and please check the disclaimer before using these data.